sensor_id;sensor_type;location;lat;lon;timestamp;temperature;humidity
2873;DHT22;1444;49.166;7.312;2023-12-20T00:00:00;5.70;99.90
2873;DHT22;1444;49.166;7.312;2023-12-20T00:02:28;5.70;99.90
2873;DHT22;1444;49.166;7.312;2023-12-20T00:04:54;5.70;99.90
2873;DHT22;1444;49.166;7.312;2023-12-20T00:07:21;5.70;99.90
2873;DHT22;1444;49.166;7.312;2023-12-20T00:09:48;5.80;99.90
2873;DHT22;1444;49.166;7.312;2023-12-20T00:12:14;5.70;99.90
2873;DHT22;1444;49.166;7.312;2023-12-20T00:14:43;5.80;99.90
2873;DHT22;1444;49.166;7.312;2023-12-20T00:17:09;5.80;99.90
2873;DHT22;1444;49.166;7.312;2023-12-20T00:19:36;5.80;99.90
2873;DHT22;1444;49.166;7.312;2023-12-20T00:22:03;5.90;99.90
2873;DHT22;1444;49.166;7.312;2023-12-20T00:24:30;5.80;99.90
2873;DHT22;1444;49.166;7.312;2023-12-20T00:26:57;5.80;99.90
2873;DHT22;1444;49.166;7.312;2023-12-20T00:29:24;5.80;99.90
2873;DHT22;1444;49.166;7.312;2023-12-20T00:31:52;5.80;99.90
2873;DHT22;1444;49.166;7.312;2023-12-20T00:34:19;5.80;99.90
2873;DHT22;1444;49.166;7.312;2023-12-20T00:36:46;5.70;99.90
2873;DHT22;1444;49.166;7.312;2023-12-20T00:39:13;5.80;99.90
2873;DHT22;1444;49.166;7.312;2023-12-20T00:41:40;5.80;99.90
2873;DHT22;1444;49.166;7.312;2023-12-20T00:44:07;5.80;99.90
2873;DHT22;1444;49.166;7.312;2023-12-20T00:46:34;5.70;99.90
2873;DHT22;1444;49.166;7.312;2023-12-20T00:49:02;5.80;99.90
2873;DHT22;1444;49.166;7.312;2023-12-20T00:51:29;5.80;99.90
2873;DHT22;1444;49.166;7.312;2023-12-20T00:53:56;5.80;99.90
2873;DHT22;1444;49.166;7.312;2023-12-20T00:56:22;5.80;99.90
2873;DHT22;1444;49.166;7.312;2023-12-20T00:58:49;5.80;99.90
2873;DHT22;1444;49.166;7.312;2023-12-20T01:01:16;5.80;99.90
2873;DHT22;1444;49.166;7.312;2023-12-20T01:03:43;5.90;99.90
2873;DHT22;1444;49.166;7.312;2023-12-20T01:06:11;5.90;99.90
2873;DHT22;1444;49.166;7.312;2023-12-20T01:08:38;5.90;99.90
2873;DHT22;1444;49.166;7.312;2023-12-20T01:11:05;6.00;99.90
2873;DHT22;1444;49.166;7.312;2023-12-20T01:13:32;5.90;99.90
2873;DHT22;1444;49.166;7.312;2023-12-20T01:15:58;6.00;99.90
2873;DHT22;1444;49.166;7.312;2023-12-20T01:18:25;6.00;99.90
2873;DHT22;1444;49.166;7.312;2023-12-20T01:20:52;6.00;99.90
2873;DHT22;1444;49.166;7.312;2023-12-20T01:23:20;6.00;99.90
2873;DHT22;1444;49.166;7.312;2023-12-20T01:25:48;6.00;99.90
2873;DHT22;1444;49.166;7.312;2023-12-20T01:28:15;6.00;99.90
2873;DHT22;1444;49.166;7.312;2023-12-20T01:30:42;5.90;99.90
2873;DHT22;1444;49.166;7.312;2023-12-20T01:33:09;5.90;99.90
2873;DHT22;1444;49.166;7.312;2023-12-20T01:35:35;5.90;99.90
2873;DHT22;1444;49.166;7.312;2023-12-20T01:38:03;5.90;99.90
2873;DHT22;1444;49.166;7.312;2023-12-20T01:40:31;5.90;99.90
2873;DHT22;1444;49.166;7.312;2023-12-20T01:42:58;5.90;99.90
2873;DHT22;1444;49.166;7.312;2023-12-20T01:45:25;5.80;99.90
2873;DHT22;1444;49.166;7.312;2023-12-20T01:47:53;5.80;99.90
2873;DHT22;1444;49.166;7.312;2023-12-20T01:50:20;5.80;99.90
2873;DHT22;1444;49.166;7.312;2023-12-20T01:52:48;5.90;99.90
2873;DHT22;1444;49.166;7.312;2023-12-20T01:55:18;6.00;99.90
2873;DHT22;1444;49.166;7.312;2023-12-20T01:57:46;6.00;99.90
2873;DHT22;1444;49.166;7.312;2023-12-20T02:00:14;6.00;99.90
2873;DHT22;1444;49.166;7.312;2023-12-20T02:02:42;6.10;99.90
2873;DHT22;1444;49.166;7.312;2023-12-20T02:05:10;6.10;99.90
2873;DHT22;1444;49.166;7.312;2023-12-20T02:07:37;6.20;99.90
2873;DHT22;1444;49.166;7.312;2023-12-20T02:10:05;6.20;99.90
2873;DHT22;1444;49.166;7.312;2023-12-20T02:12:31;6.10;99.90
2873;DHT22;1444;49.166;7.312;2023-12-20T02:15:00;6.10;99.90
2873;DHT22;1444;49.166;7.312;2023-12-20T02:17:27;6.10;99.90
2873;DHT22;1444;49.166;7.312;2023-12-20T02:19:54;6.10;99.90
2873;DHT22;1444;49.166;7.312;2023-12-20T02:22:22;6.10;99.90
2873;DHT22;1444;49.166;7.312;2023-12-20T02:24:49;6.10;99.90
2873;DHT22;1444;49.166;7.312;2023-12-20T02:27:18;6.10;99.90
2873;DHT22;1444;49.166;7.312;2023-12-20T02:29:47;6.00;99.90
2873;DHT22;1444;49.166;7.312;2023-12-20T02:32:14;6.00;99.90
2873;DHT22;1444;49.166;7.312;2023-12-20T02:34:41;6.00;99.90
2873;DHT22;1444;49.166;7.312;2023-12-20T02:37:08;6.00;99.90
2873;DHT22;1444;49.166;7.312;2023-12-20T02:39:36;6.00;99.90
2873;DHT22;1444;49.166;7.312;2023-12-20T02:42:04;6.00;99.90
2873;DHT22;1444;49.166;7.312;2023-12-20T02:44:30;6.00;99.90
2873;DHT22;1444;49.166;7.312;2023-12-20T02:46:57;6.10;99.90
2873;DHT22;1444;49.166;7.312;2023-12-20T02:49:24;6.10;99.90
2873;DHT22;1444;49.166;7.312;2023-12-20T02:51:51;6.10;99.90
2873;DHT22;1444;49.166;7.312;2023-12-20T02:54:17;6.10;99.90
2873;DHT22;1444;49.166;7.312;2023-12-20T02:56:46;6.00;99.90
2873;DHT22;1444;49.166;7.312;2023-12-20T02:59:12;6.10;99.90
2873;DHT22;1444;49.166;7.312;2023-12-20T03:01:42;6.10;99.90
2873;DHT22;1444;49.166;7.312;2023-12-20T03:04:09;6.10;99.90
2873;DHT22;1444;49.166;7.312;2023-12-20T03:06:36;6.10;99.90
2873;DHT22;1444;49.166;7.312;2023-12-20T03:09:03;6.10;99.90
2873;DHT22;1444;49.166;7.312;2023-12-20T03:11:30;6.20;99.90
2873;DHT22;1444;49.166;7.312;2023-12-20T03:13:58;6.20;99.90
2873;DHT22;1444;49.166;7.312;2023-12-20T03:16:25;6.20;99.90
2873;DHT22;1444;49.166;7.312;2023-12-20T03:18:52;6.20;99.90
2873;DHT22;1444;49.166;7.312;2023-12-20T03:21:19;6.10;99.90
2873;DHT22;1444;49.166;7.312;2023-12-20T03:23:45;6.10;99.90
2873;DHT22;1444;49.166;7.312;2023-12-20T03:26:12;6.20;99.90
2873;DHT22;1444;49.166;7.312;2023-12-20T03:28:39;6.10;99.90
2873;DHT22;1444;49.166;7.312;2023-12-20T03:31:09;6.20;99.90
2873;DHT22;1444;49.166;7.312;2023-12-20T03:33:36;6.30;99.90
2873;DHT22;1444;49.166;7.312;2023-12-20T03:36:03;6.20;99.90
2873;DHT22;1444;49.166;7.312;2023-12-20T03:38:30;6.20;99.90
2873;DHT22;1444;49.166;7.312;2023-12-20T03:40:56;6.30;99.90
2873;DHT22;1444;49.166;7.312;2023-12-20T03:43:23;6.30;99.90
2873;DHT22;1444;49.166;7.312;2023-12-20T03:45:50;6.30;99.90
2873;DHT22;1444;49.166;7.312;2023-12-20T03:48:18;6.30;99.90
2873;DHT22;1444;49.166;7.312;2023-12-20T03:53:12;6.30;99.90
2873;DHT22;1444;49.166;7.312;2023-12-20T03:55:39;6.40;99.90
2873;DHT22;1444;49.166;7.312;2023-12-20T03:58:06;6.30;99.90
2873;DHT22;1444;49.166;7.312;2023-12-20T04:00:33;6.30;99.90
2873;DHT22;1444;49.166;7.312;2023-12-20T04:02:59;6.40;99.90
2873;DHT22;1444;49.166;7.312;2023-12-20T04:05:28;6.40;99.90
2873;DHT22;1444;49.166;7.312;2023-12-20T04:07:55;6.40;99.90
2873;DHT22;1444;49.166;7.312;2023-12-20T04:10:21;6.40;99.90
2873;DHT22;1444;49.166;7.312;2023-12-20T04:12:48;6.50;99.90
2873;DHT22;1444;49.166;7.312;2023-12-20T04:15:15;6.50;99.90
2873;DHT22;1444;49.166;7.312;2023-12-20T04:17:42;6.50;99.90
2873;DHT22;1444;49.166;7.312;2023-12-20T04:20:09;6.50;99.90
2873;DHT22;1444;49.166;7.312;2023-12-20T04:22:37;6.50;99.90
2873;DHT22;1444;49.166;7.312;2023-12-20T04:27:32;6.50;99.90
2873;DHT22;1444;49.166;7.312;2023-12-20T04:29:58;6.60;99.90
2873;DHT22;1444;49.166;7.312;2023-12-20T04:32:25;6.70;99.90
2873;DHT22;1444;49.166;7.312;2023-12-20T04:34:52;6.70;99.90
2873;DHT22;1444;49.166;7.312;2023-12-20T04:37:19;6.80;99.90
2873;DHT22;1444;49.166;7.312;2023-12-20T04:39:47;6.80;99.90
2873;DHT22;1444;49.166;7.312;2023-12-20T04:42:14;6.80;99.90
2873;DHT22;1444;49.166;7.312;2023-12-20T04:44:40;6.90;99.90
2873;DHT22;1444;49.166;7.312;2023-12-20T04:47:09;6.90;99.90
2873;DHT22;1444;49.166;7.312;2023-12-20T04:49:36;7.00;99.90
2873;DHT22;1444;49.166;7.312;2023-12-20T04:52:03;7.00;99.90
2873;DHT22;1444;49.166;7.312;2023-12-20T04:54:29;7.10;99.90
2873;DHT22;1444;49.166;7.312;2023-12-20T04:56:58;7.10;99.90
2873;DHT22;1444;49.166;7.312;2023-12-20T04:59:24;7.10;99.90
2873;DHT22;1444;49.166;7.312;2023-12-20T05:01:51;7.20;99.90
2873;DHT22;1444;49.166;7.312;2023-12-20T05:04:18;7.30;99.90
2873;DHT22;1444;49.166;7.312;2023-12-20T05:06:46;7.30;99.90
2873;DHT22;1444;49.166;7.312;2023-12-20T05:09:12;7.30;99.90
2873;DHT22;1444;49.166;7.312;2023-12-20T05:11:39;7.40;99.90
2873;DHT22;1444;49.166;7.312;2023-12-20T05:14:07;7.40;99.90
2873;DHT22;1444;49.166;7.312;2023-12-20T05:16:34;7.40;99.90
2873;DHT22;1444;49.166;7.312;2023-12-20T05:19:01;7.50;99.90
2873;DHT22;1444;49.166;7.312;2023-12-20T05:21:32;7.50;99.90
2873;DHT22;1444;49.166;7.312;2023-12-20T05:23:58;7.50;99.90
2873;DHT22;1444;49.166;7.312;2023-12-20T05:26:25;7.50;99.90
2873;DHT22;1444;49.166;7.312;2023-12-20T05:28:52;7.50;99.90
2873;DHT22;1444;49.166;7.312;2023-12-20T05:31:20;7.50;99.90
2873;DHT22;1444;49.166;7.312;2023-12-20T05:33:47;7.50;99.90
2873;DHT22;1444;49.166;7.312;2023-12-20T05:36:14;7.40;99.90
2873;DHT22;1444;49.166;7.312;2023-12-20T05:38:41;7.40;99.90
2873;DHT22;1444;49.166;7.312;2023-12-20T05:41:07;7.30;99.90
2873;DHT22;1444;49.166;7.312;2023-12-20T05:43:34;7.20;99.90
2873;DHT22;1444;49.166;7.312;2023-12-20T05:46:01;7.20;99.90
2873;DHT22;1444;49.166;7.312;2023-12-20T05:48:29;7.10;99.90
2873;DHT22;1444;49.166;7.312;2023-12-20T05:53:23;7.10;99.90
2873;DHT22;1444;49.166;7.312;2023-12-20T05:55:50;7.10;99.90
2873;DHT22;1444;49.166;7.312;2023-12-20T05:58:17;7.10;99.90
2873;DHT22;1444;49.166;7.312;2023-12-20T06:00:43;7.00;99.90
2873;DHT22;1444;49.166;7.312;2023-12-20T06:03:10;7.00;99.90
2873;DHT22;1444;49.166;7.312;2023-12-20T06:05:38;7.00;99.90
2873;DHT22;1444;49.166;7.312;2023-12-20T06:08:05;6.90;99.90
2873;DHT22;1444;49.166;7.312;2023-12-20T06:10:32;6.90;99.90
2873;DHT22;1444;49.166;7.312;2023-12-20T06:12:59;6.80;99.90
2873;DHT22;1444;49.166;7.312;2023-12-20T06:15:26;6.80;99.90
2873;DHT22;1444;49.166;7.312;2023-12-20T06:17:53;6.80;99.90
2873;DHT22;1444;49.166;7.312;2023-12-20T06:20:20;6.80;99.90
2873;DHT22;1444;49.166;7.312;2023-12-20T06:22:48;6.70;99.90
2873;DHT22;1444;49.166;7.312;2023-12-20T06:25:16;6.60;99.90
2873;DHT22;1444;49.166;7.312;2023-12-20T06:27:43;6.50;99.90
2873;DHT22;1444;49.166;7.312;2023-12-20T06:30:10;6.40;99.90
2873;DHT22;1444;49.166;7.312;2023-12-20T06:32:37;6.30;99.90
2873;DHT22;1444;49.166;7.312;2023-12-20T06:35:06;6.30;99.90
2873;DHT22;1444;49.166;7.312;2023-12-20T06:37:32;6.10;99.90
2873;DHT22;1444;49.166;7.312;2023-12-20T06:40:01;6.10;99.90
2873;DHT22;1444;49.166;7.312;2023-12-20T06:42:28;6.10;99.90
2873;DHT22;1444;49.166;7.312;2023-12-20T06:44:54;5.90;99.90
2873;DHT22;1444;49.166;7.312;2023-12-20T06:47:21;5.90;99.90
2873;DHT22;1444;49.166;7.312;2023-12-20T06:49:48;5.80;99.90
2873;DHT22;1444;49.166;7.312;2023-12-20T06:52:15;5.70;99.90
2873;DHT22;1444;49.166;7.312;2023-12-20T06:54:41;5.60;99.90
2873;DHT22;1444;49.166;7.312;2023-12-20T06:57:10;5.60;99.90
2873;DHT22;1444;49.166;7.312;2023-12-20T06:59:38;5.50;99.90
2873;DHT22;1444;49.166;7.312;2023-12-20T07:02:06;5.60;99.90
2873;DHT22;1444;49.166;7.312;2023-12-20T07:04:33;5.50;99.90
2873;DHT22;1444;49.166;7.312;2023-12-20T07:06:59;5.40;99.90
2873;DHT22;1444;49.166;7.312;2023-12-20T07:09:26;5.30;99.90
2873;DHT22;1444;49.166;7.312;2023-12-20T07:11:53;5.30;99.90
2873;DHT22;1444;49.166;7.312;2023-12-20T07:14:21;5.30;99.90
2873;DHT22;1444;49.166;7.312;2023-12-20T07:16:48;5.30;99.90
2873;DHT22;1444;49.166;7.312;2023-12-20T07:21:43;5.30;99.90
2873;DHT22;1444;49.166;7.312;2023-12-20T07:24:10;5.30;99.90
2873;DHT22;1444;49.166;7.312;2023-12-20T07:26:37;5.30;99.90
2873;DHT22;1444;49.166;7.312;2023-12-20T07:29:05;5.20;99.90
2873;DHT22;1444;49.166;7.312;2023-12-20T07:31:33;5.20;99.90
2873;DHT22;1444;49.166;7.312;2023-12-20T07:34:00;5.20;99.90
2873;DHT22;1444;49.166;7.312;2023-12-20T07:36:27;5.20;99.90
2873;DHT22;1444;49.166;7.312;2023-12-20T07:38:53;5.20;99.90
2873;DHT22;1444;49.166;7.312;2023-12-20T07:41:20;5.20;99.90
2873;DHT22;1444;49.166;7.312;2023-12-20T07:43:49;5.20;99.90
2873;DHT22;1444;49.166;7.312;2023-12-20T07:46:15;5.20;99.90
2873;DHT22;1444;49.166;7.312;2023-12-20T07:48:45;5.20;99.90
2873;DHT22;1444;49.166;7.312;2023-12-20T07:51:11;5.30;99.90
2873;DHT22;1444;49.166;7.312;2023-12-20T07:53:38;5.40;99.90
2873;DHT22;1444;49.166;7.312;2023-12-20T07:56:14;5.40;99.90
2873;DHT22;1444;49.166;7.312;2023-12-20T07:58:41;5.50;99.90
2873;DHT22;1444;49.166;7.312;2023-12-20T08:01:07;5.50;99.90
2873;DHT22;1444;49.166;7.312;2023-12-20T08:03:34;5.60;99.90
2873;DHT22;1444;49.166;7.312;2023-12-20T08:06:02;5.80;99.90
2873;DHT22;1444;49.166;7.312;2023-12-20T08:08:29;5.80;99.90
2873;DHT22;1444;49.166;7.312;2023-12-20T08:10:56;6.00;99.90
2873;DHT22;1444;49.166;7.312;2023-12-20T08:13:26;6.00;99.90
2873;DHT22;1444;49.166;7.312;2023-12-20T08:15:53;6.00;99.90
2873;DHT22;1444;49.166;7.312;2023-12-20T08:18:21;6.00;99.90
2873;DHT22;1444;49.166;7.312;2023-12-20T08:20:48;6.00;99.90
2873;DHT22;1444;49.166;7.312;2023-12-20T08:23:19;6.00;99.90
2873;DHT22;1444;49.166;7.312;2023-12-20T08:25:47;6.10;99.90
2873;DHT22;1444;49.166;7.312;2023-12-20T08:28:14;6.10;99.90
2873;DHT22;1444;49.166;7.312;2023-12-20T08:30:40;6.10;99.90
2873;DHT22;1444;49.166;7.312;2023-12-20T08:33:07;6.10;99.90
2873;DHT22;1444;49.166;7.312;2023-12-20T08:35:36;6.00;99.90
2873;DHT22;1444;49.166;7.312;2023-12-20T08:38:03;6.00;99.90
2873;DHT22;1444;49.166;7.312;2023-12-20T08:40:32;6.10;99.90
2873;DHT22;1444;49.166;7.312;2023-12-20T08:42:58;6.10;99.90
2873;DHT22;1444;49.166;7.312;2023-12-20T08:45:25;6.10;99.90
2873;DHT22;1444;49.166;7.312;2023-12-20T08:47:52;6.10;99.90
2873;DHT22;1444;49.166;7.312;2023-12-20T08:50:19;6.20;99.90
2873;DHT22;1444;49.166;7.312;2023-12-20T08:52:45;6.20;99.90
2873;DHT22;1444;49.166;7.312;2023-12-20T08:55:12;6.20;99.90
2873;DHT22;1444;49.166;7.312;2023-12-20T08:57:41;6.20;99.90
2873;DHT22;1444;49.166;7.312;2023-12-20T09:00:10;6.20;99.90
2873;DHT22;1444;49.166;7.312;2023-12-20T09:02:37;6.20;99.90
2873;DHT22;1444;49.166;7.312;2023-12-20T09:05:04;6.20;99.90
2873;DHT22;1444;49.166;7.312;2023-12-20T09:07:31;6.20;99.90
2873;DHT22;1444;49.166;7.312;2023-12-20T09:09:58;6.20;99.90
2873;DHT22;1444;49.166;7.312;2023-12-20T09:12:25;6.20;99.90
2873;DHT22;1444;49.166;7.312;2023-12-20T09:14:54;6.30;99.90
2873;DHT22;1444;49.166;7.312;2023-12-20T09:17:21;6.30;99.90
2873;DHT22;1444;49.166;7.312;2023-12-20T09:19:48;6.30;99.90
2873;DHT22;1444;49.166;7.312;2023-12-20T09:22:15;6.40;99.90
2873;DHT22;1444;49.166;7.312;2023-12-20T09:24:43;6.40;99.90
2873;DHT22;1444;49.166;7.312;2023-12-20T09:27:10;6.30;99.90
2873;DHT22;1444;49.166;7.312;2023-12-20T09:29:37;6.30;99.90
2873;DHT22;1444;49.166;7.312;2023-12-20T09:32:05;6.40;99.90
2873;DHT22;1444;49.166;7.312;2023-12-20T09:34:32;6.40;99.90
2873;DHT22;1444;49.166;7.312;2023-12-20T09:36:59;6.30;99.90
2873;DHT22;1444;49.166;7.312;2023-12-20T09:39:25;6.30;99.90
2873;DHT22;1444;49.166;7.312;2023-12-20T09:41:58;6.40;99.90
2873;DHT22;1444;49.166;7.312;2023-12-20T09:44:26;6.40;99.90
2873;DHT22;1444;49.166;7.312;2023-12-20T09:46:55;6.40;99.90
2873;DHT22;1444;49.166;7.312;2023-12-20T09:49:23;6.40;99.90
2873;DHT22;1444;49.166;7.312;2023-12-20T09:51:54;6.50;99.90
2873;DHT22;1444;49.166;7.312;2023-12-20T09:54:22;6.50;99.90
2873;DHT22;1444;49.166;7.312;2023-12-20T09:56:49;6.50;99.90
2873;DHT22;1444;49.166;7.312;2023-12-20T09:59:16;6.60;99.90
2873;DHT22;1444;49.166;7.312;2023-12-20T10:01:43;6.50;99.90
2873;DHT22;1444;49.166;7.312;2023-12-20T10:04:12;6.60;99.90
2873;DHT22;1444;49.166;7.312;2023-12-20T10:06:41;6.60;99.90
2873;DHT22;1444;49.166;7.312;2023-12-20T10:09:09;6.50;99.90
2873;DHT22;1444;49.166;7.312;2023-12-20T10:11:36;6.50;99.90
2873;DHT22;1444;49.166;7.312;2023-12-20T10:14:04;6.60;99.90
2873;DHT22;1444;49.166;7.312;2023-12-20T10:16:31;6.50;99.90
2873;DHT22;1444;49.166;7.312;2023-12-20T10:18:59;6.50;99.90
2873;DHT22;1444;49.166;7.312;2023-12-20T10:21:26;6.50;99.90
2873;DHT22;1444;49.166;7.312;2023-12-20T10:23:55;6.50;99.90
2873;DHT22;1444;49.166;7.312;2023-12-20T10:26:23;6.60;99.90
2873;DHT22;1444;49.166;7.312;2023-12-20T10:28:51;6.60;99.90
2873;DHT22;1444;49.166;7.312;2023-12-20T10:31:29;6.50;99.90
2873;DHT22;1444;49.166;7.312;2023-12-20T10:33:57;6.50;99.90
2873;DHT22;1444;49.166;7.312;2023-12-20T10:36:25;6.60;99.90
2873;DHT22;1444;49.166;7.312;2023-12-20T10:38:55;6.60;99.90
2873;DHT22;1444;49.166;7.312;2023-12-20T10:41:25;6.60;99.90
2873;DHT22;1444;49.166;7.312;2023-12-20T10:43:57;6.70;99.90
2873;DHT22;1444;49.166;7.312;2023-12-20T10:46:26;6.70;99.90
2873;DHT22;1444;49.166;7.312;2023-12-20T10:48:54;6.70;99.90
2873;DHT22;1444;49.166;7.312;2023-12-20T10:51:22;6.70;99.90
2873;DHT22;1444;49.166;7.312;2023-12-20T10:53:50;6.80;99.90
2873;DHT22;1444;49.166;7.312;2023-12-20T10:56:19;6.80;99.90
2873;DHT22;1444;49.166;7.312;2023-12-20T10:58:47;6.90;99.90
2873;DHT22;1444;49.166;7.312;2023-12-20T11:01:15;6.90;99.90
2873;DHT22;1444;49.166;7.312;2023-12-20T11:03:48;6.90;99.90
2873;DHT22;1444;49.166;7.312;2023-12-20T11:06:27;6.90;99.90
2873;DHT22;1444;49.166;7.312;2023-12-20T11:09:03;6.80;99.90
2873;DHT22;1444;49.166;7.312;2023-12-20T11:11:42;6.80;99.90
2873;DHT22;1444;49.166;7.312;2023-12-20T11:14:15;6.80;99.90
2873;DHT22;1444;49.166;7.312;2023-12-20T11:16:43;6.80;99.90
2873;DHT22;1444;49.166;7.312;2023-12-20T11:19:11;6.90;99.90
2873;DHT22;1444;49.166;7.312;2023-12-20T11:21:40;7.00;99.90
2873;DHT22;1444;49.166;7.312;2023-12-20T11:24:06;7.00;99.90
2873;DHT22;1444;49.166;7.312;2023-12-20T11:26:33;7.10;99.90
2873;DHT22;1444;49.166;7.312;2023-12-20T11:29:32;7.00;99.90
2873;DHT22;1444;49.166;7.312;2023-12-20T11:32:01;7.10;99.90
2873;DHT22;1444;49.166;7.312;2023-12-20T11:34:29;7.00;99.90
2873;DHT22;1444;49.166;7.312;2023-12-20T11:36:58;7.10;99.90
2873;DHT22;1444;49.166;7.312;2023-12-20T11:39:26;7.10;99.90
2873;DHT22;1444;49.166;7.312;2023-12-20T11:41:55;7.00;99.90
2873;DHT22;1444;49.166;7.312;2023-12-20T11:44:23;7.20;99.90
2873;DHT22;1444;49.166;7.312;2023-12-20T11:46:52;7.20;99.90
2873;DHT22;1444;49.166;7.312;2023-12-20T11:49:23;7.20;99.90
2873;DHT22;1444;49.166;7.312;2023-12-20T11:51:50;7.10;99.90
2873;DHT22;1444;49.166;7.312;2023-12-20T11:54:17;7.20;99.90
2873;DHT22;1444;49.166;7.312;2023-12-20T11:56:45;7.20;99.90
2873;DHT22;1444;49.166;7.312;2023-12-20T11:59:12;7.20;99.90
2873;DHT22;1444;49.166;7.312;2023-12-20T12:01:39;7.10;99.90
2873;DHT22;1444;49.166;7.312;2023-12-20T12:04:07;7.10;99.90
2873;DHT22;1444;49.166;7.312;2023-12-20T12:06:35;7.10;99.90
2873;DHT22;1444;49.166;7.312;2023-12-20T12:09:02;7.20;99.90
2873;DHT22;1444;49.166;7.312;2023-12-20T12:11:30;7.10;99.90
2873;DHT22;1444;49.166;7.312;2023-12-20T12:13:57;7.10;99.90
2873;DHT22;1444;49.166;7.312;2023-12-20T12:18:57;7.30;99.90
2873;DHT22;1444;49.166;7.312;2023-12-20T12:21:25;7.20;99.90
2873;DHT22;1444;49.166;7.312;2023-12-20T12:23:52;7.30;99.90
2873;DHT22;1444;49.166;7.312;2023-12-20T12:26:19;7.30;99.90
2873;DHT22;1444;49.166;7.312;2023-12-20T12:28:46;7.40;99.90
2873;DHT22;1444;49.166;7.312;2023-12-20T12:31:14;7.40;99.90
2873;DHT22;1444;49.166;7.312;2023-12-20T12:33:42;7.40;99.90
2873;DHT22;1444;49.166;7.312;2023-12-20T12:36:09;7.40;99.90
2873;DHT22;1444;49.166;7.312;2023-12-20T12:41:05;7.50;99.90
2873;DHT22;1444;49.166;7.312;2023-12-20T12:43:32;7.50;99.90
2873;DHT22;1444;49.166;7.312;2023-12-20T12:46:00;7.50;99.90
2873;DHT22;1444;49.166;7.312;2023-12-20T12:48:27;7.70;99.90
2873;DHT22;1444;49.166;7.312;2023-12-20T12:50:54;7.50;99.90
2873;DHT22;1444;49.166;7.312;2023-12-20T12:53:24;7.50;99.90
2873;DHT22;1444;49.166;7.312;2023-12-20T12:55:53;7.60;99.90
2873;DHT22;1444;49.166;7.312;2023-12-20T12:58:21;7.60;99.90
2873;DHT22;1444;49.166;7.312;2023-12-20T13:00:47;7.60;99.90
2873;DHT22;1444;49.166;7.312;2023-12-20T13:03:14;7.60;99.90
2873;DHT22;1444;49.166;7.312;2023-12-20T13:05:42;7.60;99.90
2873;DHT22;1444;49.166;7.312;2023-12-20T13:08:09;7.60;99.90
2873;DHT22;1444;49.166;7.312;2023-12-20T13:10:37;7.50;99.90
2873;DHT22;1444;49.166;7.312;2023-12-20T13:13:05;7.50;99.90
2873;DHT22;1444;49.166;7.312;2023-12-20T13:15:32;7.50;99.90
2873;DHT22;1444;49.166;7.312;2023-12-20T13:17:59;7.50;99.90
2873;DHT22;1444;49.166;7.312;2023-12-20T13:20:26;7.60;99.90
2873;DHT22;1444;49.166;7.312;2023-12-20T13:22:53;7.50;99.90
2873;DHT22;1444;49.166;7.312;2023-12-20T13:25:20;7.50;99.90
2873;DHT22;1444;49.166;7.312;2023-12-20T13:27:46;7.50;99.90
2873;DHT22;1444;49.166;7.312;2023-12-20T13:30:16;7.50;99.90
2873;DHT22;1444;49.166;7.312;2023-12-20T13:32:44;7.50;99.90
2873;DHT22;1444;49.166;7.312;2023-12-20T13:35:10;7.50;99.90
2873;DHT22;1444;49.166;7.312;2023-12-20T13:37:38;7.50;99.90
2873;DHT22;1444;49.166;7.312;2023-12-20T13:40:06;7.50;99.90
2873;DHT22;1444;49.166;7.312;2023-12-20T13:42:33;7.60;99.90
2873;DHT22;1444;49.166;7.312;2023-12-20T13:45:01;7.50;99.90
2873;DHT22;1444;49.166;7.312;2023-12-20T13:47:31;7.60;99.90
2873;DHT22;1444;49.166;7.312;2023-12-20T13:49:58;7.70;99.90
2873;DHT22;1444;49.166;7.312;2023-12-20T13:52:25;7.70;99.90
2873;DHT22;1444;49.166;7.312;2023-12-20T13:54:52;7.60;99.90
2873;DHT22;1444;49.166;7.312;2023-12-20T13:57:19;7.70;99.90
2873;DHT22;1444;49.166;7.312;2023-12-20T13:59:45;7.60;99.90
2873;DHT22;1444;49.166;7.312;2023-12-20T14:02:12;7.60;99.90
2873;DHT22;1444;49.166;7.312;2023-12-20T14:04:42;7.60;99.90
2873;DHT22;1444;49.166;7.312;2023-12-20T14:07:09;7.60;99.90
2873;DHT22;1444;49.166;7.312;2023-12-20T14:09:36;7.50;99.90
2873;DHT22;1444;49.166;7.312;2023-12-20T14:14:30;7.50;99.90
2873;DHT22;1444;49.166;7.312;2023-12-20T14:16:57;7.50;99.90
2873;DHT22;1444;49.166;7.312;2023-12-20T14:19:24;7.60;99.90
2873;DHT22;1444;49.166;7.312;2023-12-20T14:21:52;7.60;99.90
2873;DHT22;1444;49.166;7.312;2023-12-20T14:24:19;7.60;99.90
2873;DHT22;1444;49.166;7.312;2023-12-20T14:26:45;7.60;99.90
2873;DHT22;1444;49.166;7.312;2023-12-20T14:31:39;7.60;99.90
2873;DHT22;1444;49.166;7.312;2023-12-20T14:34:06;7.60;99.90
2873;DHT22;1444;49.166;7.312;2023-12-20T14:36:34;7.60;99.90
2873;DHT22;1444;49.166;7.312;2023-12-20T14:39:02;7.70;99.90
2873;DHT22;1444;49.166;7.312;2023-12-20T14:41:29;7.60;99.90
2873;DHT22;1444;49.166;7.312;2023-12-20T14:43:56;7.60;99.90
2873;DHT22;1444;49.166;7.312;2023-12-20T14:46:25;7.60;99.90
2873;DHT22;1444;49.166;7.312;2023-12-20T14:48:52;7.60;99.90
2873;DHT22;1444;49.166;7.312;2023-12-20T14:51:19;7.50;99.90
2873;DHT22;1444;49.166;7.312;2023-12-20T14:53:46;7.50;99.90
2873;DHT22;1444;49.166;7.312;2023-12-20T14:56:14;7.50;99.90
2873;DHT22;1444;49.166;7.312;2023-12-20T14:58:41;7.50;99.90
2873;DHT22;1444;49.166;7.312;2023-12-20T15:01:08;7.50;99.90
2873;DHT22;1444;49.166;7.312;2023-12-20T15:03:35;7.50;99.90
2873;DHT22;1444;49.166;7.312;2023-12-20T15:06:02;7.50;99.90
2873;DHT22;1444;49.166;7.312;2023-12-20T15:10:56;7.50;99.90
2873;DHT22;1444;49.166;7.312;2023-12-20T15:13:24;7.50;99.90
2873;DHT22;1444;49.166;7.312;2023-12-20T15:15:51;7.50;99.90
2873;DHT22;1444;49.166;7.312;2023-12-20T15:18:17;7.50;99.90
2873;DHT22;1444;49.166;7.312;2023-12-20T15:20:44;7.40;99.90
2873;DHT22;1444;49.166;7.312;2023-12-20T15:23:13;7.40;99.90
2873;DHT22;1444;49.166;7.312;2023-12-20T15:25:40;7.40;99.90
2873;DHT22;1444;49.166;7.312;2023-12-20T15:28:07;7.40;99.90
2873;DHT22;1444;49.166;7.312;2023-12-20T15:30:35;7.50;99.90
2873;DHT22;1444;49.166;7.312;2023-12-20T15:33:02;7.50;99.90
2873;DHT22;1444;49.166;7.312;2023-12-20T15:35:29;7.40;99.90
2873;DHT22;1444;49.166;7.312;2023-12-20T15:37:56;7.40;99.90
2873;DHT22;1444;49.166;7.312;2023-12-20T15:40:23;7.50;99.90
2873;DHT22;1444;49.166;7.312;2023-12-20T15:42:50;7.50;99.90
2873;DHT22;1444;49.166;7.312;2023-12-20T15:45:17;7.50;99.90
2873;DHT22;1444;49.166;7.312;2023-12-20T15:47:45;7.50;99.90
2873;DHT22;1444;49.166;7.312;2023-12-20T15:50:12;7.60;99.90
2873;DHT22;1444;49.166;7.312;2023-12-20T15:52:39;7.60;99.90
2873;DHT22;1444;49.166;7.312;2023-12-20T15:55:08;7.50;99.90
2873;DHT22;1444;49.166;7.312;2023-12-20T15:57:35;7.40;99.90
2873;DHT22;1444;49.166;7.312;2023-12-20T16:00:03;7.40;99.90
2873;DHT22;1444;49.166;7.312;2023-12-20T16:02:30;7.40;99.90
2873;DHT22;1444;49.166;7.312;2023-12-20T16:04:58;7.40;99.90
2873;DHT22;1444;49.166;7.312;2023-12-20T16:07:25;7.40;99.90
2873;DHT22;1444;49.166;7.312;2023-12-20T16:09:52;7.40;99.90
2873;DHT22;1444;49.166;7.312;2023-12-20T16:12:18;7.40;99.90
2873;DHT22;1444;49.166;7.312;2023-12-20T16:14:45;7.40;99.90
2873;DHT22;1444;49.166;7.312;2023-12-20T16:17:12;7.30;99.90
2873;DHT22;1444;49.166;7.312;2023-12-20T16:19:39;7.30;99.90
2873;DHT22;1444;49.166;7.312;2023-12-20T16:22:07;7.30;99.90
2873;DHT22;1444;49.166;7.312;2023-12-20T16:24:34;7.30;99.90
2873;DHT22;1444;49.166;7.312;2023-12-20T16:27:01;7.40;99.90
2873;DHT22;1444;49.166;7.312;2023-12-20T16:29:28;7.30;99.90
2873;DHT22;1444;49.166;7.312;2023-12-20T16:31:55;7.30;99.90
2873;DHT22;1444;49.166;7.312;2023-12-20T16:34:23;7.30;99.90
2873;DHT22;1444;49.166;7.312;2023-12-20T16:36:51;7.40;99.90
2873;DHT22;1444;49.166;7.312;2023-12-20T16:39:21;7.40;99.90